createdAt,value
2017-08-31T00:00:22.186Z,70.7
2017-08-31T00:01:22.935Z,70.6
2017-08-31T00:02:23.674Z,72.4
2017-08-31T00:03:24.409Z,72.4
2017-08-31T00:04:25.200Z,72.7
2017-08-31T00:05:25.954Z,73.6
2017-08-31T00:06:26.773Z,73.8
2017-08-31T00:07:27.482Z,72.9
2017-08-31T00:08:28.206Z,74.3
2017-08-31T00:09:28.947Z,74.3
2017-08-31T00:10:29.754Z,74.1
2017-08-31T00:11:30.450Z,74.3
2017-08-31T00:12:31.304Z,74.1
2017-08-31T00:13:32.045Z,74.9
2017-08-31T00:14:32.701Z,74.6
2017-08-31T00:15:33.441Z,74.7
2017-08-31T00:16:34.220Z,74.3
2017-08-31T00:17:35.211Z,74.0
2017-08-31T00:18:35.858Z,74.0
2017-08-31T00:19:36.618Z,73.8
2017-08-31T00:20:37.422Z,74.0
2017-08-31T00:21:38.139Z,73.6
2017-08-31T00:22:38.887Z,73.6
2017-08-31T00:23:39.616Z,73.7
2017-08-31T00:24:40.411Z,74.1
2017-08-31T00:25:41.126Z,74.0
2017-08-31T00:26:41.928Z,74.1
2017-08-31T00:27:42.609Z,74.7
2017-08-31T00:28:43.419Z,74.7
2017-08-31T00:29:44.089Z,74.4
2017-08-31T00:30:44.845Z,74.6
2017-08-31T00:31:45.652Z,74.6
2017-08-31T00:32:46.330Z,74.0
2017-08-31T00:33:47.037Z,74.5
2017-08-31T00:34:47.780Z,75.0
2017-08-31T00:35:48.500Z,75.3
2017-08-31T00:36:49.207Z,74.6
2017-08-31T00:37:49.962Z,74.4
2017-08-31T00:38:50.719Z,74.5
2017-08-31T00:39:51.502Z,74.4
2017-08-31T00:40:52.204Z,74.7
2017-08-31T00:41:52.994Z,75.4
2017-08-31T00:42:53.642Z,75.6
2017-08-31T00:43:54.423Z,75.8
2017-08-31T00:44:55.167Z,75.9
2017-08-31T00:45:55.955Z,75.9
2017-08-31T00:46:56.680Z,76.0
2017-08-31T00:47:57.401Z,76.3
2017-08-31T00:48:58.120Z,76.1
2017-08-31T00:49:58.938Z,76.1
2017-08-31T00:50:59.730Z,77.0
2017-08-31T00:52:00.626Z,76.9
2017-08-31T00:53:01.368Z,77.3
2017-08-31T00:54:02.116Z,76.8
2017-08-31T00:55:02.864Z,76.9
2017-08-31T00:56:03.548Z,77.7
2017-08-31T00:57:04.261Z,77.3
2017-08-31T00:58:04.986Z,77.3
2017-08-31T00:59:05.773Z,77.1
2017-08-31T01:00:06.572Z,78.7
2017-08-31T01:01:07.289Z,78.2
2017-08-31T01:02:08.258Z,78.6
2017-08-31T01:03:08.950Z,78.5
2017-08-31T01:04:09.681Z,78.2
2017-08-31T01:05:10.394Z,78.6
2017-08-31T01:06:11.116Z,78.4
2017-08-31T01:07:11.869Z,78.4
2017-08-31T01:08:12.634Z,78.3
2017-08-31T01:09:13.370Z,78.2
2017-08-31T01:10:14.128Z,78.6
2017-08-31T01:11:14.850Z,78.5
2017-08-31T01:12:15.796Z,78.5
2017-08-31T01:13:16.608Z,78.3
2017-08-31T01:14:17.331Z,78.2
2017-08-31T01:15:18.051Z,78.3
2017-08-31T01:16:18.862Z,77.9
2017-08-31T01:17:19.591Z,78.1
2017-08-31T01:18:20.326Z,78.3
2017-08-31T01:19:21.100Z,78.4
2017-08-31T01:20:21.814Z,78.3
2017-08-31T01:21:22.662Z,78.3
2017-08-31T01:22:23.432Z,78.4
2017-08-31T01:23:24.241Z,78.3
2017-08-31T01:24:25.019Z,78.3
2017-08-31T01:25:25.815Z,78.3
2017-08-31T01:26:26.529Z,78.2
2017-08-31T01:27:27.287Z,78.2
2017-08-31T01:28:28.123Z,78.1
2017-08-31T01:29:28.875Z,78.4
2017-08-31T01:30:29.590Z,78.3
2017-08-31T01:31:30.361Z,78.3
2017-08-31T01:32:31.091Z,78.4
2017-08-31T01:33:31.862Z,78.3
2017-08-31T01:34:32.551Z,78.2
2017-08-31T01:35:33.238Z,78.4
2017-08-31T01:36:34.042Z,78.8
2017-08-31T01:37:34.799Z,77.9
2017-08-31T01:38:35.625Z,78.3
2017-08-31T01:39:36.370Z,78.7
2017-08-31T01:40:37.035Z,78.5
2017-08-31T01:41:37.794Z,78.5
2017-08-31T01:42:38.547Z,78.6
2017-08-31T01:43:39.262Z,78.6
2017-08-31T01:44:40.032Z,79.4
2017-08-31T01:45:40.836Z,79.1
2017-08-31T01:46:41.575Z,79.8
2017-08-31T01:47:42.330Z,79.3
2017-08-31T01:48:43.053Z,79.5
2017-08-31T01:49:43.781Z,79.5
2017-08-31T01:50:44.497Z,79.4
2017-08-31T01:51:45.321Z,79.9
2017-08-31T01:52:46.023Z,80.0
2017-08-31T01:53:46.853Z,80.1
2017-08-31T01:54:47.704Z,79.9
2017-08-31T01:55:48.436Z,79.7
2017-08-31T01:56:49.180Z,80.2
2017-08-31T01:57:49.969Z,80.1
2017-08-31T01:58:50.753Z,80.1
2017-08-31T01:59:51.493Z,80.1
2017-08-31T02:00:52.210Z,80.2
2017-08-31T02:03:08.520Z,80.2
2017-08-31T02:04:09.335Z,79.6
2017-08-31T02:05:10.000Z,80.4
2017-08-31T02:06:10.761Z,79.8
2017-08-31T02:07:11.508Z,80.1
2017-08-31T02:08:12.320Z,79.7
2017-08-31T02:09:13.045Z,80.1
2017-08-31T02:10:13.882Z,79.5
2017-08-31T02:11:14.572Z,79.5
2017-08-31T02:12:15.345Z,79.2
2017-08-31T02:13:16.075Z,79.3
2017-08-31T02:14:16.834Z,79.7
2017-08-31T02:15:17.555Z,80.2
2017-08-31T02:16:18.289Z,80.1
2017-08-31T02:17:19.018Z,80.1
2017-08-31T02:18:19.772Z,80.1
2017-08-31T02:19:20.529Z,80.4
2017-08-31T02:20:21.199Z,79.1
2017-08-31T02:21:21.930Z,80.2
2017-08-31T02:22:22.657Z,80.0
2017-08-31T02:23:23.398Z,79.6
2017-08-31T02:24:24.189Z,80.0
2017-08-31T02:25:24.948Z,80.1
2017-08-31T02:26:25.699Z,80.0
2017-08-31T02:27:26.468Z,80.8
2017-08-31T02:28:27.168Z,80.1
2017-08-31T02:29:27.868Z,80.0
2017-08-31T02:30:29.350Z,80.1
2017-08-31T02:31:30.030Z,79.9
2017-08-31T02:32:30.738Z,80.0
2017-08-31T02:33:31.512Z,80.1
2017-08-31T02:34:32.258Z,79.5
2017-08-31T02:35:32.992Z,79.3
2017-08-31T02:36:33.783Z,79.4
2017-08-31T02:37:34.480Z,79.0
2017-08-31T02:38:35.174Z,78.2
2017-08-31T02:39:35.928Z,77.7
2017-08-31T02:40:36.716Z,77.3
2017-08-31T02:41:37.434Z,76.6
2017-08-31T02:42:38.165Z,76.6
2017-08-31T02:43:38.901Z,76.8
2017-08-31T02:44:39.614Z,76.3
2017-08-31T02:45:40.401Z,77.2
2017-08-31T02:46:41.071Z,76.8
2017-08-31T02:47:41.816Z,76.7
2017-08-31T02:48:42.559Z,76.6
2017-08-31T02:49:43.234Z,76.6
2017-08-31T02:50:44.023Z,76.6
2017-08-31T02:51:44.765Z,76.4
2017-08-31T02:52:45.502Z,76.5
2017-08-31T02:53:46.300Z,75.9
2017-08-31T02:54:47.017Z,75.3
2017-08-31T02:55:47.728Z,74.6
2017-08-31T02:56:48.430Z,74.3
2017-08-31T02:57:49.153Z,74.5
2017-08-31T02:58:49.878Z,74.8
2017-08-31T02:59:50.626Z,73.9
2017-08-31T03:00:51.329Z,74.6
2017-08-31T03:01:52.030Z,74.3
2017-08-31T03:02:52.759Z,74.1
2017-08-31T03:03:53.516Z,74.6
2017-08-31T03:04:54.243Z,74.5
2017-08-31T03:05:55.037Z,73.8
2017-08-31T03:06:55.796Z,73.9
2017-08-31T03:07:56.504Z,74.1
2017-08-31T03:08:57.241Z,74.2
2017-08-31T03:09:57.993Z,73.9
2017-08-31T03:10:58.744Z,73.8
2017-08-31T03:11:59.512Z,74.2
2017-08-31T03:13:00.242Z,73.7
2017-08-31T03:14:01.068Z,73.9
2017-08-31T03:15:01.793Z,74.2
2017-08-31T03:16:02.467Z,74.0
2017-08-31T03:17:03.219Z,73.8
2017-08-31T03:18:03.922Z,73.9
2017-08-31T03:19:04.669Z,73.8
2017-08-31T03:20:05.365Z,73.9
2017-08-31T03:21:06.201Z,74.0
2017-08-31T03:22:06.857Z,73.9
2017-08-31T03:23:07.627Z,73.7
2017-08-31T03:24:08.370Z,73.6
2017-08-31T03:25:09.244Z,73.5
2017-08-31T03:26:09.966Z,73.0
2017-08-31T03:27:10.697Z,73.2
2017-08-31T03:28:11.423Z,72.5
2017-08-31T03:29:12.161Z,73.2
2017-08-31T03:30:12.920Z,72.5
2017-08-31T03:31:13.619Z,72.5
2017-08-31T03:32:14.363Z,72.6
2017-08-31T03:33:15.142Z,73.1
2017-08-31T03:34:15.874Z,73.6
2017-08-31T03:35:16.640Z,73.1
2017-08-31T03:36:17.343Z,72.5
2017-08-31T03:37:18.103Z,73.3
2017-08-31T03:38:18.837Z,73.0
2017-08-31T03:39:19.591Z,72.7
2017-08-31T03:40:20.365Z,72.8
2017-08-31T03:41:21.081Z,73.6
2017-08-31T03:42:21.865Z,72.4
2017-08-31T03:43:22.554Z,72.5
2017-08-31T03:44:23.305Z,72.7
2017-08-31T03:45:24.024Z,72.7
2017-08-31T03:46:24.751Z,72.9
2017-08-31T03:47:25.484Z,73.2
2017-08-31T03:48:26.315Z,73.0
2017-08-31T03:49:26.975Z,72.7
2017-08-31T03:50:27.743Z,72.7
2017-08-31T03:51:28.478Z,72.7
2017-08-31T03:52:29.240Z,72.8
2017-08-31T03:53:30.030Z,72.5
2017-08-31T03:54:30.739Z,72.6
2017-08-31T03:55:31.501Z,72.8
2017-08-31T03:56:32.240Z,72.5
2017-08-31T03:57:32.980Z,73.0
2017-08-31T03:58:33.659Z,73.3
2017-08-31T03:59:34.539Z,73.6
2017-08-31T04:00:35.638Z,73.9
2017-08-31T04:01:36.389Z,73.6
2017-08-31T04:02:37.158Z,74.1
2017-08-31T04:03:38.193Z,73.9
2017-08-31T04:04:38.892Z,73.7
2017-08-31T04:05:39.737Z,73.9
2017-08-31T04:06:40.462Z,74.1
2017-08-31T04:07:41.221Z,73.8
2017-08-31T04:08:41.917Z,74.2
2017-08-31T04:09:42.637Z,74.4
2017-08-31T04:10:43.473Z,75.2
2017-08-31T04:11:44.255Z,75.8
2017-08-31T04:12:44.974Z,75.6
2017-08-31T04:13:45.669Z,76.0
2017-08-31T04:14:46.385Z,75.3
2017-08-31T04:15:47.295Z,75.6
2017-08-31T04:16:48.172Z,76.4
2017-08-31T04:17:48.915Z,76.4
2017-08-31T04:18:49.569Z,77.0
2017-08-31T04:19:50.305Z,76.6
2017-08-31T04:20:51.140Z,76.9
2017-08-31T04:21:51.852Z,77.8
2017-08-31T04:22:52.619Z,77.6
2017-08-31T04:23:53.343Z,78.1
2017-08-31T04:24:54.090Z,78.6
2017-08-31T04:25:54.892Z,79.1
2017-08-31T04:26:55.619Z,79.5
2017-08-31T04:27:56.359Z,80.0
2017-08-31T04:28:57.057Z,80.1
2017-08-31T04:29:57.849Z,79.7
2017-08-31T04:30:58.607Z,80.0
2017-08-31T04:31:59.352Z,79.8
2017-08-31T04:33:00.091Z,79.3
2017-08-31T04:34:00.915Z,79.3
2017-08-31T04:35:01.608Z,79.4
2017-08-31T04:36:02.392Z,79.3
2017-08-31T04:37:03.131Z,79.5
2017-08-31T04:38:03.866Z,79.0
2017-08-31T04:39:04.618Z,79.4
2017-08-31T04:40:05.356Z,79.0
2017-08-31T04:41:06.150Z,79.2
2017-08-31T04:42:07.003Z,79.5
2017-08-31T04:43:07.735Z,79.6
2017-08-31T04:44:08.420Z,79.3
2017-08-31T04:45:09.255Z,79.2
2017-08-31T04:46:10.020Z,79.4
2017-08-31T04:47:10.768Z,79.0
2017-08-31T04:48:11.625Z,79.7
2017-08-31T04:49:12.321Z,79.7
2017-08-31T04:50:13.056Z,79.9
2017-08-31T04:51:13.808Z,79.9
2017-08-31T04:52:14.623Z,79.9
2017-08-31T04:53:15.374Z,79.3
2017-08-31T04:54:16.344Z,79.6
2017-08-31T04:55:17.120Z,79.4
2017-08-31T04:56:17.837Z,78.9
2017-08-31T04:57:18.646Z,78.6
2017-08-31T04:58:19.432Z,78.7
2017-08-31T04:59:20.629Z,78.4
2017-08-31T05:00:21.299Z,78.4
2017-08-31T05:01:22.297Z,78.7
2017-08-31T05:02:22.954Z,78.0
2017-08-31T05:03:23.745Z,77.6
2017-08-31T05:04:24.408Z,77.8
2017-08-31T05:05:25.311Z,77.3
2017-08-31T05:06:26.137Z,77.4
2017-08-31T05:07:27.194Z,77.1
2017-08-31T05:08:27.835Z,77.1
2017-08-31T05:09:28.581Z,77.6
2017-08-31T05:10:29.411Z,77.9
2017-08-31T05:11:30.462Z,77.5
2017-08-31T05:12:31.237Z,77.4
2017-08-31T05:13:32.013Z,77.7
2017-08-31T05:14:32.993Z,76.1
2017-08-31T05:15:34.120Z,76.2
2017-08-31T05:16:35.343Z,76.3
2017-08-31T05:17:36.119Z,76.5
2017-08-31T05:18:36.810Z,76.5
2017-08-31T05:19:37.780Z,76.2
2017-08-31T05:20:38.555Z,75.7
2017-08-31T05:21:39.343Z,76.1
2017-08-31T05:22:40.129Z,75.6
2017-08-31T05:23:40.887Z,76.1
2017-08-31T05:24:41.604Z,75.2
2017-08-31T05:25:42.393Z,75.9
2017-08-31T05:26:43.117Z,75.1
2017-08-31T05:27:43.856Z,74.4
2017-08-31T05:28:44.569Z,74.3
2017-08-31T05:29:45.323Z,74.6
2017-08-31T05:30:46.115Z,74.0
2017-08-31T05:31:46.855Z,73.5
2017-08-31T05:32:47.555Z,72.6
2017-08-31T05:33:48.311Z,70.7
2017-08-31T05:34:49.094Z,69.8
2017-08-31T05:35:49.890Z,70.4
2017-08-31T05:36:50.607Z,70.2
2017-08-31T05:37:51.330Z,70.5
2017-08-31T05:38:52.067Z,70.8
2017-08-31T05:39:52.821Z,70.8
2017-08-31T05:40:53.557Z,70.0
2017-08-31T05:41:54.297Z,69.4
2017-08-31T05:42:55.031Z,67.3
2017-08-31T05:43:55.729Z,66.7
2017-08-31T05:44:56.448Z,64.6
2017-08-31T05:45:57.451Z,62.5
2017-08-31T05:46:58.362Z,62.4
2017-08-31T05:47:59.159Z,60.3
2017-08-31T05:48:59.939Z,61.4
2017-08-31T05:50:00.985Z,60.2
2017-08-31T05:51:01.721Z,58.5
2017-08-31T05:52:02.574Z,59.4
2017-08-31T05:53:03.303Z,57.5
2017-08-31T05:54:04.118Z,57.6
2017-08-31T05:55:04.793Z,58.0
2017-08-31T05:56:05.605Z,58.3
2017-08-31T05:57:06.361Z,57.0
2017-08-31T05:58:07.141Z,56.3
2017-08-31T05:59:08.251Z,55.7
2017-08-31T06:00:08.918Z,54.1
2017-08-31T06:01:09.978Z,54.9
2017-08-31T06:02:10.789Z,56.2
2017-08-31T06:03:11.463Z,56.3
2017-08-31T06:04:12.205Z,56.1
2017-08-31T06:05:13.001Z,54.9
2017-08-31T06:06:13.810Z,55.1
2017-08-31T06:07:14.595Z,54.7
2017-08-31T06:08:15.531Z,55.1
2017-08-31T06:09:16.212Z,55.9
2017-08-31T06:10:16.939Z,55.8
2017-08-31T06:11:17.780Z,54.8
2017-08-31T06:12:18.699Z,54.2
2017-08-31T06:13:19.524Z,54.8
2017-08-31T06:14:20.211Z,56.4
2017-08-31T06:15:21.486Z,55.8
2017-08-31T06:16:22.212Z,58.1
2017-08-31T06:17:22.972Z,57.4
2017-08-31T06:18:23.820Z,57.6
2017-08-31T06:19:24.689Z,57.4
2017-08-31T06:20:25.498Z,58.0
2017-08-31T06:21:26.284Z,57.2
2017-08-31T06:22:27.067Z,58.2
2017-08-31T06:23:28.321Z,57.7
2017-08-31T06:24:28.990Z,57.8
2017-08-31T06:25:29.715Z,57.0
2017-08-31T06:26:30.598Z,56.7
2017-08-31T06:27:31.695Z,55.7
2017-08-31T06:28:32.789Z,56.1
2017-08-31T06:29:33.507Z,57.2
2017-08-31T06:30:34.180Z,57.3
2017-08-31T06:31:34.991Z,58.0
2017-08-31T06:32:35.700Z,59.2
2017-08-31T06:33:36.447Z,59.9
2017-08-31T06:34:37.222Z,59.3
2017-08-31T06:35:37.972Z,59.8
2017-08-31T06:36:38.833Z,59.3
2017-08-31T06:37:40.407Z,60.2
2017-08-31T06:38:41.666Z,59.5
2017-08-31T06:39:42.511Z,60.0
2017-08-31T06:40:43.349Z,59.6
2017-08-31T06:41:44.447Z,61.3
2017-08-31T06:42:45.148Z,61.1
2017-08-31T06:43:45.981Z,61.0
2017-08-31T06:44:46.647Z,60.4
2017-08-31T06:45:47.698Z,61.1
2017-08-31T06:46:48.514Z,61.3
2017-08-31T06:47:49.254Z,60.1
2017-08-31T06:48:50.248Z,60.9
2017-08-31T06:49:50.979Z,62.8
2017-08-31T06:50:51.719Z,61.9
2017-08-31T06:51:53.017Z,60.6
2017-08-31T06:52:53.759Z,60.6
2017-08-31T06:53:54.900Z,60.5
2017-08-31T06:54:55.704Z,61.3
2017-08-31T06:55:56.421Z,61.1
2017-08-31T06:56:57.154Z,62.0
2017-08-31T06:57:57.995Z,61.1
2017-08-31T07:00:01.157Z,60.5
2017-08-31T07:01:01.974Z,60.6
2017-08-31T07:02:02.654Z,60.1
2017-08-31T07:03:03.556Z,59.4
2017-08-31T07:04:04.401Z,59.9
2017-08-31T07:05:05.565Z,59.3
2017-08-31T07:06:06.261Z,60.1
2017-08-31T07:07:06.976Z,61.5
2017-08-31T07:09:23.475Z,61.1
2017-08-31T07:10:24.271Z,62.0
2017-08-31T07:11:25.235Z,61.5
2017-08-31T07:12:25.978Z,62.4
2017-08-31T07:13:26.796Z,62.2
2017-08-31T07:14:27.582Z,62.4
2017-08-31T07:15:28.378Z,62.2
2017-08-31T07:16:29.135Z,62.7
2017-08-31T07:17:29.848Z,62.7
2017-08-31T07:18:30.568Z,61.9
2017-08-31T07:19:31.786Z,62.2
2017-08-31T07:20:32.877Z,61.9
2017-08-31T07:21:33.536Z,62.5
2017-08-31T07:22:34.340Z,62.8
2017-08-31T07:23:35.283Z,61.9
2017-08-31T07:24:36.056Z,61.8
2017-08-31T07:25:36.756Z,62.8
2017-08-31T07:26:37.537Z,63.2
2017-08-31T07:27:38.451Z,65.2
2017-08-31T07:28:39.174Z,62.8
2017-08-31T07:29:39.953Z,61.7
2017-08-31T07:30:40.734Z,63.4
2017-08-31T07:31:41.393Z,63.9
2017-08-31T07:32:42.157Z,63.2
2017-08-31T07:33:43.105Z,63.6
2017-08-31T07:34:43.826Z,63.7
2017-08-31T07:35:44.650Z,64.2
2017-08-31T07:36:45.504Z,64.8
2017-08-31T07:37:46.652Z,63.6
2017-08-31T07:38:47.328Z,63.9
2017-08-31T07:39:48.090Z,63.3
2017-08-31T07:40:48.813Z,63.4
2017-08-31T07:41:49.591Z,63.2
2017-08-31T07:42:50.390Z,63.8
2017-08-31T07:43:51.188Z,63.1
2017-08-31T07:44:51.930Z,63.3
2017-08-31T07:45:52.839Z,63.5
2017-08-31T07:46:53.648Z,63.5
2017-08-31T07:47:54.475Z,63.7
2017-08-31T07:48:55.203Z,63.4
2017-08-31T07:49:56.308Z,62.0
2017-08-31T07:50:57.103Z,62.4
2017-08-31T07:51:57.873Z,62.4
2017-08-31T07:52:58.617Z,61.9
2017-08-31T07:53:59.496Z,62.1
2017-08-31T07:55:00.209Z,61.8
2017-08-31T07:56:01.022Z,62.0
2017-08-31T07:57:01.693Z,61.9
2017-08-31T07:58:02.433Z,62.2
2017-08-31T07:59:03.153Z,63.2
2017-08-31T08:00:03.974Z,62.5
2017-08-31T08:01:05.073Z,62.0
2017-08-31T08:02:05.825Z,60.0
2017-08-31T08:03:06.528Z,59.4
2017-08-31T08:04:07.269Z,58.3
2017-08-31T08:05:08.725Z,59.9
2017-08-31T08:06:09.418Z,61.1
2017-08-31T08:07:10.169Z,60.2
2017-08-31T08:08:10.894Z,60.6
2017-08-31T08:09:12.023Z,60.4
2017-08-31T08:10:12.703Z,61.6
2017-08-31T08:11:13.946Z,61.3
2017-08-31T08:12:14.637Z,61.3
2017-08-31T08:13:15.470Z,60.8
2017-08-31T08:15:32.709Z,61.3
2017-08-31T08:16:33.488Z,60.6
2017-08-31T08:17:34.233Z,60.3
2017-08-31T08:18:34.990Z,61.0
2017-08-31T08:19:35.855Z,62.1
2017-08-31T08:20:37.211Z,62.1
2017-08-31T08:21:37.867Z,61.0
2017-08-31T08:22:38.780Z,62.1
2017-08-31T08:23:39.708Z,62.5
2017-08-31T08:24:40.971Z,62.9
2017-08-31T08:25:41.985Z,63.4
2017-08-31T08:26:43.565Z,63.7
2017-08-31T08:27:44.264Z,64.1
2017-08-31T08:28:45.041Z,63.6
2017-08-31T08:29:45.794Z,63.9
2017-08-31T08:30:47.280Z,64.7
2017-08-31T08:31:47.954Z,63.8
2017-08-31T08:32:48.677Z,64.3
2017-08-31T08:34:52.395Z,65.0
2017-08-31T08:35:53.093Z,64.3
2017-08-31T08:36:53.838Z,63.9
2017-08-31T08:37:54.581Z,65.6
2017-08-31T08:38:55.701Z,66.6
2017-08-31T08:39:56.480Z,67.5
2017-08-31T08:40:57.265Z,68.4
2017-08-31T08:41:58.839Z,69.5
2017-08-31T08:43:00.100Z,69.5
2017-08-31T08:44:00.866Z,69.7
2017-08-31T08:45:01.803Z,69.3
2017-08-31T08:46:03.073Z,69.4
2017-08-31T08:47:04.018Z,70.6
2017-08-31T08:48:04.781Z,70.3
2017-08-31T08:49:06.717Z,70.5
2017-08-31T08:50:08.055Z,69.8
2017-08-31T08:51:08.825Z,71.1
2017-08-31T08:52:09.527Z,71.2
2017-08-31T08:53:10.305Z,72.0
2017-08-31T08:54:11.120Z,72.3
2017-08-31T08:55:11.875Z,73.5
2017-08-31T08:56:13.003Z,72.6
2017-08-31T08:57:13.999Z,72.3
2017-08-31T08:58:14.736Z,74.3
2017-08-31T08:59:15.549Z,74.2
2017-08-31T09:00:16.308Z,74.2
2017-08-31T09:01:17.274Z,73.7
2017-08-31T09:02:18.082Z,74.3
2017-08-31T09:03:18.807Z,75.9
2017-08-31T09:04:19.773Z,76.3
2017-08-31T09:05:20.889Z,76.2
2017-08-31T09:06:21.695Z,77.0
2017-08-31T09:07:22.495Z,77.6
2017-08-31T09:08:23.692Z,77.3
2017-08-31T09:09:24.448Z,77.4
2017-08-31T09:10:25.212Z,77.4
2017-08-31T09:11:26.134Z,77.3
2017-08-31T09:12:26.923Z,76.3
2017-08-31T09:13:27.670Z,77.4
2017-08-31T09:14:28.436Z,77.7
2017-08-31T09:15:29.989Z,78.0
2017-08-31T09:16:30.829Z,78.3
2017-08-31T09:17:31.540Z,78.4
2017-08-31T09:18:32.285Z,78.5
2017-08-31T09:19:33.967Z,77.8
2017-08-31T09:20:35.489Z,78.0
2017-08-31T09:21:36.918Z,78.3
2017-08-31T09:22:38.338Z,78.0
2017-08-31T09:23:39.125Z,77.0
2017-08-31T09:24:40.021Z,77.7
2017-08-31T09:25:40.776Z,79.7
2017-08-31T09:26:41.548Z,80.2
2017-08-31T09:27:42.348Z,78.3
2017-08-31T09:28:43.155Z,79.2
2017-08-31T09:29:43.959Z,79.1
2017-08-31T09:30:45.480Z,77.4
2017-08-31T09:31:46.224Z,77.2
2017-08-31T09:32:47.063Z,75.4
2017-08-31T09:33:47.782Z,77.6
2017-08-31T09:34:49.240Z,76.4
2017-08-31T09:35:50.510Z,76.7
2017-08-31T09:36:51.292Z,76.0
2017-08-31T09:37:52.968Z,74.1
2017-08-31T09:38:53.756Z,74.1
2017-08-31T09:39:54.421Z,73.9
2017-08-31T09:40:55.652Z,75.4
2017-08-31T09:41:56.354Z,72.2
2017-08-31T09:42:57.121Z,70.9
2017-08-31T09:43:57.838Z,73.3
2017-08-31T09:44:58.594Z,73.5
2017-08-31T09:45:59.450Z,70.0
2017-08-31T09:47:00.258Z,72.3
2017-08-31T09:48:00.980Z,74.6
2017-08-31T09:49:01.684Z,72.7
2017-08-31T09:50:02.745Z,74.0
2017-08-31T09:51:03.542Z,73.7
2017-08-31T09:52:04.533Z,70.1
2017-08-31T09:53:05.253Z,66.9
2017-08-31T09:54:06.183Z,65.5
2017-08-31T09:55:07.388Z,64.8
2017-08-31T09:56:08.149Z,67.6
2017-08-31T09:57:08.881Z,67.3
2017-08-31T09:58:09.845Z,67.9
2017-08-31T09:59:10.700Z,68.5
2017-08-31T10:00:11.502Z,66.9
2017-08-31T10:01:12.436Z,67.3
2017-08-31T10:02:13.187Z,64.7
2017-08-31T10:03:14.289Z,63.0
2017-08-31T10:04:14.974Z,65.5
2017-08-31T10:05:16.240Z,67.0
2017-08-31T10:06:16.933Z,64.4
2017-08-31T10:07:17.718Z,65.8
2017-08-31T10:08:18.519Z,66.6
2017-08-31T10:09:19.218Z,63.5
2017-08-31T10:10:20.030Z,64.7
2017-08-31T10:11:21.633Z,64.5
2017-08-31T10:12:22.874Z,67.4
2017-08-31T10:13:23.644Z,65.0
2017-08-31T10:14:24.391Z,64.9
2017-08-31T10:15:25.221Z,65.9
2017-08-31T10:16:26.826Z,67.1
2017-08-31T10:17:28.485Z,67.5
2017-08-31T10:18:29.567Z,65.6
2017-08-31T10:19:30.479Z,67.7
2017-08-31T10:20:31.269Z,69.1
2017-08-31T10:21:31.971Z,65.3
2017-08-31T10:22:32.703Z,67.8
2017-08-31T10:23:34.286Z,67.5
2017-08-31T10:24:35.491Z,69.9
2017-08-31T10:25:36.713Z,69.4
2017-08-31T10:26:38.055Z,67.2
2017-08-31T10:27:39.132Z,65.1
2017-08-31T10:28:40.216Z,65.3
2017-08-31T10:29:41.083Z,65.8
2017-08-31T10:30:41.753Z,66.9
2017-08-31T10:31:42.969Z,66.3
2017-08-31T10:32:43.746Z,64.8
2017-08-31T10:33:44.512Z,64.3
2017-08-31T10:34:45.248Z,64.0
2017-08-31T10:35:46.028Z,63.9
2017-08-31T10:36:46.733Z,63.5
2017-08-31T10:37:47.501Z,63.8
2017-08-31T10:38:48.414Z,63.9
2017-08-31T10:39:49.117Z,64.4
2017-08-31T10:40:49.922Z,65.1
2017-08-31T10:41:50.673Z,64.5
2017-08-31T10:42:51.579Z,64.0
2017-08-31T10:43:52.302Z,62.8
2017-08-31T10:44:53.042Z,65.1
2017-08-31T10:45:54.947Z,66.1
2017-08-31T10:46:56.080Z,64.9
2017-08-31T10:47:57.239Z,66.1
2017-08-31T10:48:58.093Z,65.4
2017-08-31T10:49:59.076Z,66.4
2017-08-31T10:50:59.836Z,66.4
2017-08-31T10:52:00.671Z,66.8
2017-08-31T10:53:01.784Z,63.8
2017-08-31T10:54:02.665Z,65.0
2017-08-31T10:55:03.507Z,64.8
2017-08-31T10:56:04.179Z,65.7
2017-08-31T10:57:05.013Z,64.3
2017-08-31T10:58:06.383Z,65.3
2017-08-31T10:59:07.123Z,65.2
2017-08-31T11:00:07.858Z,63.8
2017-08-31T11:01:08.721Z,64.1
2017-08-31T11:02:09.600Z,62.9
2017-08-31T11:03:10.318Z,63.6
2017-08-31T11:04:11.074Z,64.6
2017-08-31T11:05:12.099Z,64.9
2017-08-31T11:06:14.160Z,64.9
2017-08-31T11:07:15.066Z,62.6
2017-08-31T11:08:15.972Z,62.5
2017-08-31T11:09:17.524Z,64.0
2017-08-31T11:10:18.609Z,63.7
2017-08-31T11:11:19.731Z,65.1
2017-08-31T11:12:20.489Z,64.7
2017-08-31T11:13:21.276Z,63.6
2017-08-31T11:14:22.055Z,62.3
2017-08-31T11:15:22.841Z,64.0
2017-08-31T11:16:23.638Z,64.4
2017-08-31T11:17:24.364Z,63.4
2017-08-31T11:18:25.105Z,64.2
2017-08-31T11:19:26.426Z,65.1
2017-08-31T11:20:27.949Z,64.8
2017-08-31T11:21:29.070Z,64.8
2017-08-31T11:22:30.556Z,62.9
2017-08-31T11:23:31.233Z,63.0
2017-08-31T11:24:31.987Z,63.7
2017-08-31T11:25:32.733Z,61.7
2017-08-31T11:26:33.792Z,62.4
2017-08-31T11:27:34.977Z,63.0
2017-08-31T11:28:35.919Z,61.5
2017-08-31T11:29:36.657Z,62.6
2017-08-31T11:30:37.487Z,64.0
2017-08-31T11:31:38.176Z,62.8
2017-08-31T11:32:39.399Z,62.3
2017-08-31T11:33:40.233Z,62.1
2017-08-31T11:34:40.979Z,62.7
2017-08-31T11:35:42.457Z,63.0
2017-08-31T11:36:43.204Z,62.5
2017-08-31T11:37:43.837Z,63.3
2017-08-31T11:38:44.601Z,64.9
2017-08-31T11:39:45.378Z,63.6
2017-08-31T11:40:46.154Z,62.6
2017-08-31T11:41:46.912Z,62.3
2017-08-31T11:42:47.654Z,61.3
2017-08-31T11:44:51.069Z,64.1
2017-08-31T11:45:53.198Z,61.9
2017-08-31T11:46:54.293Z,61.1
2017-08-31T11:47:55.860Z,62.6
2017-08-31T11:48:56.914Z,62.3
2017-08-31T11:49:57.686Z,60.1
2017-08-31T11:50:58.720Z,61.0
2017-08-31T11:51:59.455Z,60.6
2017-08-31T11:53:00.182Z,61.3
2017-08-31T11:54:01.107Z,61.4
2017-08-31T11:55:01.997Z,62.9
2017-08-31T11:56:03.013Z,62.7
2017-08-31T11:57:04.040Z,61.4
2017-08-31T11:58:04.981Z,62.5
2017-08-31T11:59:05.839Z,62.7
2017-08-31T12:00:07.187Z,62.9
2017-08-31T12:01:08.194Z,64.2
2017-08-31T12:02:10.024Z,63.5
2017-08-31T12:03:10.660Z,62.5
2017-08-31T12:04:11.479Z,61.4
2017-08-31T12:05:13.707Z,63.5
2017-08-31T12:06:14.685Z,63.0
2017-08-31T12:07:15.614Z,62.6
2017-08-31T12:08:16.842Z,61.3
2017-08-31T12:09:17.668Z,62.8
2017-08-31T12:10:19.044Z,63.0
2017-08-31T12:11:19.898Z,61.2
2017-08-31T12:12:20.680Z,62.1
2017-08-31T12:13:21.408Z,61.2
2017-08-31T12:14:22.239Z,62.4
2017-08-31T12:15:23.033Z,62.7
2017-08-31T12:16:24.380Z,62.0
2017-08-31T12:17:25.096Z,61.6
2017-08-31T12:18:25.865Z,62.7
2017-08-31T12:19:27.847Z,62.4
2017-08-31T12:20:29.035Z,63.6
2017-08-31T12:21:30.492Z,64.7
2017-08-31T12:22:31.340Z,64.1
2017-08-31T12:23:32.127Z,62.9
2017-08-31T12:24:32.892Z,65.0
2017-08-31T12:25:33.618Z,64.0
2017-08-31T12:26:34.435Z,65.4
2017-08-31T12:27:35.294Z,65.1
2017-08-31T12:28:36.814Z,65.6
2017-08-31T12:29:37.648Z,64.9
2017-08-31T12:30:38.388Z,65.3
2017-08-31T12:31:39.182Z,66.4
2017-08-31T12:32:40.469Z,68.7
2017-08-31T12:33:41.473Z,67.6
2017-08-31T12:34:42.394Z,67.7
2017-08-31T12:35:43.290Z,67.8
2017-08-31T12:36:44.417Z,70.0
2017-08-31T12:37:45.251Z,70.3
2017-08-31T12:38:46.301Z,69.5
2017-08-31T12:41:48.927Z,71.3
2017-08-31T12:46:54.219Z,71.5
2017-08-31T12:56:01.389Z,78.2
2017-08-31T12:59:03.888Z,80.6
2017-08-31T13:09:11.711Z,83.7
2017-08-31T13:16:17.191Z,83.3
2017-08-31T13:19:19.586Z,85.3
2017-08-31T13:20:20.547Z,84.2
2017-08-31T13:21:21.477Z,85.4
2017-08-31T13:25:24.584Z,83.2
2017-08-31T13:34:31.188Z,83.7
2017-08-31T13:40:36.085Z,83.4
2017-08-31T13:52:44.973Z,82.0
2017-08-31T13:53:45.944Z,83.9
2017-08-31T13:56:48.225Z,82.1
2017-08-31T14:01:52.276Z,81.9
2017-08-31T14:03:54.000Z,80.6
2017-08-31T14:06:56.485Z,82.3
2017-08-31T14:08:58.292Z,79.9
2017-08-31T14:28:41.940Z,80.6
2017-08-31T15:11:27.869Z,78.9
2017-08-31T15:13:44.179Z,80.2
2017-08-31T15:14:44.955Z,79.0
2017-08-31T15:15:45.878Z,79.0
2017-08-31T15:16:46.769Z,80.2
2017-08-31T15:17:47.506Z,79.6
2017-08-31T15:18:48.968Z,80.3
2017-08-31T15:19:50.624Z,79.9
2017-08-31T15:20:51.447Z,79.2
2017-08-31T15:21:52.172Z,79.7
2017-08-31T15:22:53.062Z,81.0
2017-08-31T15:23:53.836Z,79.8
2017-08-31T15:24:54.548Z,79.9
2017-08-31T15:25:55.305Z,78.0
2017-08-31T15:26:56.087Z,79.4
2017-08-31T15:27:56.918Z,78.5
2017-08-31T15:28:57.784Z,81.2
2017-08-31T15:29:58.640Z,79.6
2017-08-31T15:30:59.397Z,80.3
2017-08-31T15:32:00.115Z,80.2
2017-08-31T15:33:00.904Z,81.1
2017-08-31T15:34:01.611Z,79.5
2017-08-31T15:35:02.402Z,79.1
2017-08-31T15:36:03.120Z,80.2
2017-08-31T15:37:03.975Z,80.9
2017-08-31T15:38:04.680Z,80.2
2017-08-31T15:39:05.474Z,78.8
2017-08-31T15:40:06.294Z,77.9
2017-08-31T15:41:07.070Z,78.5
2017-08-31T15:42:07.821Z,78.6
2017-08-31T15:43:09.105Z,76.6
2017-08-31T15:44:10.346Z,75.7
2017-08-31T15:45:10.985Z,75.4
2017-08-31T15:46:11.792Z,77.6
2017-08-31T15:47:13.253Z,76.9
2017-08-31T15:48:13.918Z,74.3
2017-08-31T15:49:14.642Z,75.0